Tambon Khok Lo, Thailand

5:37 PM ICT on February 08, 2016 (GMT +0700)
Trang | | Change Station
CLOSE
Current Station
Airport
Location: Trang,
Elevation: 52 ft
Nearby Weather Stations

Elev 52 ft 7.51 °N, 99.62 °E | Updated 37 minutes ago

Mostly Cloudy
Mostly Cloudy
82 °F
Feels Like 85 °F
N
10
Wind Variable Wind from NE

Today
High -- | Low -- °F
--% Chance of Precip.
Yesterday
High -- | Low -- °F
Precip. -- in
Pressure 29.77 in
Visibility 4.3 miles
Clouds Few 2000 ft
Mostly Cloudy 30000 ft
Heat Index 85 °F
Dew Point 66 °F
Humidity 58%
Rainfall 0.00 in
Snow Depth Not available.
6:40 AM 6:31 PM
Waning Crescent, 0% visible
METAR VTST 081000Z 05009KT 7000 FEW020 BKN300 28/19 Q1008 RWY08 INFO K
Pressure 29.77 in
Visibility 4.3 miles
Clouds Few 2000 ft
Mostly Cloudy 30000 ft
Heat Index 85 °F
Dew Point 66 °F
Humidity 58%
Rainfall 0.00 in
Snow Depth Not available.
6:40 AM 6:31 PM
Waning Crescent, 0% visible
METAR VTST 081000Z 05009KT 7000 FEW020 BKN300 28/19 Q1008 RWY08 INFO K

10-Day Weather Forecast

No radar image for this location.
×

Almanac

Astronomy

Feb. 08, 2016 Rise Set
Actual Time
Civil Twilight
Nautical Twilight
Astronomical Twilight
Moon
Length of Visible Light
Length of Day
Tomorrow will be .
, % of the Moon is Illuminated

Today's Extremes

Country Highs Country Lows

Community

WunderPhotos

Upload Photos

1,891,420 photos uploaded!

WunderBlog® & News

Nearby

Air Quality

  Air Quality AQ Index Pollutant
Not available.

Snow Depth

Station Depth Elevation

Earthquake Activity

City Distance Mag. Time & Date
Minimum magnitude displayed is 2.5.

Coastal Water Temperatures

Place Temperature

Stations

Nearby Weather Stations

Station Location Temp. Windchill Dew Point Humidity Wind Precip. Elev Updated Type